Portada
METAR-TAF:

METAR-TAF

Aeroports :

Al-Kuwait, Kuwait

latitud: 29-13N, longitud: 047-59E, altitud: 55 m

Observació

L'informe es va fer fa 57 minuts, a les 12:59 UTC
Vent 10 kt del Nord
Temperatura 40°C
Humitat 10%
Pressió 1007 hPa
Visibilitat 10 km o més
sense núvols per sota de 1500 mi sense presència de cumulonimbus.

METAR: OKBK 201259Z 35010KT CAVOK 40/02 Q1007 NOSIG

Hora: 16:56 (13:56 UTC)

Pronòstic

L'informe es va fer fa 3 hores i 11 minuts, a les 10:45 UTC
Pronòstic vàlid del 20 a les 12 UTC al 21 a les 18 UTC
Vent 3 kt amb direcció variable
Visibilitat 10 km o més
sense núvols per sota de 1500 mi sense presència de cumulonimbus.
Temporalment
l' 20 a les 12 UTC al 20 a les 24 UTC
Vent 10 kt del Nord

TAF: OKBK 201045Z 2012/2118 VRB03KT CAVOK TEMPO 2012/2024 35010KT

Observacions i pronòstics meteorològics de més de 4000 aeroports (METAR i TAF).

Les estacions disponibles són els punts grocs i vermells al mapa.

Posi el ratolí al punt desitjat per veure el nom de l'estació.

Feu clic per veure les observacions i els pronòstics meteorològics.

Per canviar el mapa: feu clic els botons verds amb una creu de color negre per apropar; al botó verd amb un guió per allunyar la imatge; o en les fletxes verdes per a mapes adjacents.


METAR-TAF: